Time;durP1;ratioP1;P1;durP2;ratioP2;P2;SDS_P1;SDS_P2;PMS_P1;PMS_P2;Temp;Humidity;BMP_temperature;BMP_pressure;BME280_temperature;BME280_humidity;BME280_pressure;Samples;Min_cycle;Max_cycle;Signal;HPM_P1;HPM_P2
2022/04/08 00:00:36;;;;;;;5.43;1.23;;;;;;;;;;5053666;28;20024;-66
2022/04/08 00:03:02;;;;;;;9.55;1.50;;;;;;;;;;5053274;28;20082;-65
2022/04/08 00:05:28;;;;;;;4.85;1.20;;;;;;;;;;5053251;28;20033;-66
2022/04/08 00:07:54;;;;;;;5.65;1.63;;;;;;;;;;5049999;28;20101;-64
2022/04/08 00:10:20;;;;;;;17.40;1.58;;;;;;;;;;5053076;28;20025;-65
2022/04/08 00:12:46;;;;;;;5.68;1.50;;;;;;;;;;5053048;28;20057;-66
2022/04/08 00:15:12;;;;;;;5.50;1.50;;;;;;;;;;5053022;28;20131;-66
2022/04/08 00:17:38;;;;;;;9.30;1.48;;;;;;;;;;5053257;28;20503;-68
2022/04/08 00:20:04;;;;;;;8.38;1.58;;;;;;;;;;5053169;28;20029;-67
2022/04/08 00:22:31;;;;;;;4.65;1.30;;;;;;;;;;5052737;28;20064;-67
2022/04/08 00:24:58;;;;;;;7.00;1.63;;;;;;;;;;5061994;28;20349;-67
2022/04/08 00:27:24;;;;;;;9.07;1.88;;;;;;;;;;5069175;28;20074;-66
2022/04/08 00:29:50;;;;;;;7.45;1.80;;;;;;;;;;5052946;28;20021;-66
2022/04/08 00:32:16;;;;;;;7.35;1.40;;;;;;;;;;5052830;28;20036;-67
2022/04/08 00:34:42;;;;;;;6.30;1.40;;;;;;;;;;5052321;28;20037;-67
2022/04/08 00:37:09;;;;;;;9.32;1.52;;;;;;;;;;5052101;28;20025;-65
2022/04/08 00:39:35;;;;;;;5.10;1.08;;;;;;;;;;5052894;28;20021;-67
2022/04/08 00:42:01;;;;;;;10.32;1.40;;;;;;;;;;5051865;28;20025;-67
2022/04/08 00:44:29;;;;;;;5.28;1.20;;;;;;;;;;5052422;28;20029;-67
2022/04/08 00:46:55;;;;;;;4.97;1.50;;;;;;;;;;5052969;28;20025;-66
2022/04/08 00:49:21;;;;;;;7.55;1.40;;;;;;;;;;5052688;28;20029;-65
2022/04/08 00:51:47;;;;;;;7.43;1.27;;;;;;;;;;5052427;28;20086;-64
2022/04/08 00:54:13;;;;;;;9.82;1.40;;;;;;;;;;5052578;28;20035;-65
2022/04/08 00:56:39;;;;;;;3.63;1.20;;;;;;;;;;5034585;28;20055;-66
2022/04/08 00:59:05;;;;;;;8.90;1.50;;;;;;;;;;5051937;28;20058;-61
2022/04/08 01:01:32;;;;;;;5.95;1.50;;;;;;;;;;5051820;28;20044;-59
2022/04/08 01:03:58;;;;;;;5.25;1.33;;;;;;;;;;5051862;28;20040;-63
2022/04/08 01:06:26;;;;;;;8.48;1.25;;;;;;;;;;5051469;28;20687;-64
2022/04/08 01:08:52;;;;;;;6.07;1.55;;;;;;;;;;5049376;28;20020;-59
2022/04/08 01:11:19;;;;;;;5.38;1.40;;;;;;;;;;5046782;28;20103;-61
2022/04/08 01:13:45;;;;;;;7.88;1.38;;;;;;;;;;5051875;28;20045;-59
2022/04/08 01:16:12;;;;;;;10.02;1.58;;;;;;;;;;5052181;28;20025;-59
2022/04/08 01:18:38;;;;;;;8.88;1.40;;;;;;;;;;5034547;28;20024;-60
2022/04/08 01:21:08;;;;;;;7.32;1.60;;;;;;;;;;5051980;28;20036;-61
2022/04/08 01:23:34;;;;;;;4.93;1.20;;;;;;;;;;5052175;28;20033;-62
2022/04/08 01:26:07;;;;;;;5.47;1.35;;;;;;;;;;5054928;28;20094;-66
2022/04/08 01:28:33;;;;;;;;;;;;;;;;;;5052304;28;20036;-62
2022/04/08 01:30:59;;;;;;;5.95;1.52;;;;;;;;;;5052216;28;19905;-66
2022/04/08 01:33:25;;;;;;;4.32;1.40;;;;;;;;;;5051548;28;20025;-63
2022/04/08 01:35:51;;;;;;;6.45;1.30;;;;;;;;;;5051825;28;20778;-65
2022/04/08 01:38:17;;;;;;;7.43;1.73;;;;;;;;;;5051996;28;20112;-58
2022/04/08 01:40:43;;;;;;;7.97;1.25;;;;;;;;;;5052172;28;20423;-60
2022/04/08 01:43:09;;;;;;;5.63;1.42;;;;;;;;;;5034125;28;20060;-61
2022/04/08 01:45:35;;;;;;;6.30;2.00;;;;;;;;;;5051544;28;20029;-61
2022/04/08 01:48:03;;;;;;;5.28;1.30;;;;;;;;;;5054470;28;20460;-60
2022/04/08 01:50:29;;;;;;;2.85;0.93;;;;;;;;;;5055798;28;20091;-59
2022/04/08 01:52:55;;;;;;;6.00;1.10;;;;;;;;;;5055798;28;20400;-65
2022/04/08 01:55:21;;;;;;;6.88;1.73;;;;;;;;;;5055795;28;20101;-62
2022/04/08 01:57:47;;;;;;;4.38;1.27;;;;;;;;;;5050510;28;20040;-64
2022/04/08 02:00:13;;;;;;;7.90;1.35;;;;;;;;;;5055668;28;20054;-64
2022/04/08 02:02:40;;;;;;;6.28;1.30;;;;;;;;;;5055567;28;20025;-60
2022/04/08 02:05:06;;;;;;;5.78;1.38;;;;;;;;;;5055544;28;20048;-60
2022/04/08 02:07:32;;;;;;;11.75;1.38;;;;;;;;;;5055800;28;20025;-65
2022/04/08 02:09:58;;;;;;;4.85;1.25;;;;;;;;;;5037614;28;20033;-60
2022/04/08 02:12:24;;;;;;;9.30;1.40;;;;;;;;;;5047287;28;20385;-61
2022/04/08 02:14:50;;;;;;;6.25;1.15;;;;;;;;;;5054572;28;20045;-60
2022/04/08 02:17:17;;;;;;;6.50;1.40;;;;;;;;;;5055805;28;20021;-60
2022/04/08 02:19:43;;;;;;;3.97;1.10;;;;;;;;;;5055715;28;20029;-60
2022/04/08 02:22:09;;;;;;;6.90;1.30;;;;;;;;;;5055116;28;20025;-65
2022/04/08 02:24:35;;;;;;;4.10;1.40;;;;;;;;;;5055360;28;20121;-66
2022/04/08 02:27:03;;;;;;;8.27;1.33;;;;;;;;;;5055202;28;20025;-61
2022/04/08 02:29:29;;;;;;;9.75;1.35;;;;;;;;;;5038784;28;20064;-62
2022/04/08 02:31:58;;;;;;;4.05;1.08;;;;;;;;;;5055279;28;20368;-63
2022/04/08 02:34:24;;;;;;;6.55;1.35;;;;;;;;;;5054738;28;20024;-64
2022/04/08 02:36:50;;;;;;;9.63;1.27;;;;;;;;;;5055190;28;20029;-60
2022/04/08 02:39:18;;;;;;;4.55;1.10;;;;;;;;;;5037326;28;20029;-61
2022/04/08 02:41:44;;;;;;;6.45;1.23;;;;;;;;;;5035759;28;20025;-61
2022/04/08 02:44:10;;;;;;;7.28;1.10;;;;;;;;;;5055182;28;20059;-60
2022/04/08 02:46:36;;;;;;;3.55;1.20;;;;;;;;;;5054774;28;20041;-65
2022/04/08 02:49:02;;;;;;;7.43;1.15;;;;;;;;;;5055053;28;20021;-63
2022/04/08 02:51:28;;;;;;;6.25;1.30;;;;;;;;;;5054950;28;20033;-64
2022/04/08 02:53:55;;;;;;;6.05;1.10;;;;;;;;;;5054984;28;20431;-61
2022/04/08 02:56:21;;;;;;;5.68;1.17;;;;;;;;;;5054539;28;20407;-61
2022/04/08 02:58:48;;;;;;;4.80;1.10;;;;;;;;;;5052979;28;20475;-61
2022/04/08 03:01:15;;;;;;;6.32;1.15;;;;;;;;;;5054648;28;20104;-60
2022/04/08 03:03:41;;;;;;;3.05;1.13;;;;;;;;;;5054728;28;20029;-62
2022/04/08 03:06:07;;;;;;;2.97;1.10;;;;;;;;;;5054639;28;20086;-58
2022/04/08 03:08:34;;;;;;;5.50;1.25;;;;;;;;;;5054748;28;20400;-64
2022/04/08 03:11:00;;;;;;;6.10;1.30;;;;;;;;;;5054330;28;20029;-63
2022/04/08 03:13:26;;;;;;;5.85;0.90;;;;;;;;;;5054193;28;20507;-61
2022/04/08 03:15:52;;;;;;;2.78;1.13;;;;;;;;;;5047297;28;20029;-61
2022/04/08 03:18:18;;;;;;;3.42;1.00;;;;;;;;;;5036369;28;20120;-61
2022/04/08 03:20:45;;;;;;;7.82;1.15;;;;;;;;;;5054192;28;20108;-62
2022/04/08 03:23:10;;;;;;;5.05;0.90;;;;;;;;;;5054519;28;20056;-62
2022/04/08 03:25:36;;;;;;;2.10;1.00;;;;;;;;;;5068170;28;20064;-65
2022/04/08 03:28:02;;;;;;;7.00;1.30;;;;;;;;;;5065764;28;20021;-64
2022/04/08 03:30:31;;;;;;;5.43;1.42;;;;;;;;;;5054197;28;20029;-61
2022/04/08 03:32:57;;;;;;;5.22;1.00;;;;;;;;;;5052204;28;20033;-66
2022/04/08 03:35:23;;;;;;;4.13;1.00;;;;;;;;;;5054179;28;20070;-60
2022/04/08 03:37:49;;;;;;;3.58;1.20;;;;;;;;;;5054020;28;20028;-65
2022/04/08 03:40:16;;;;;;;6.93;1.25;;;;;;;;;;5035974;28;20078;-66
2022/04/08 03:42:42;;;;;;;4.05;1.23;;;;;;;;;;5053780;28;20021;-64
2022/04/08 03:45:08;;;;;;;3.88;1.00;;;;;;;;;;5053810;28;20399;-66
2022/04/08 03:47:34;;;;;;;4.82;1.10;;;;;;;;;;5053887;28;20032;-66
2022/04/08 03:50:00;;;;;;;3.30;1.20;;;;;;;;;;5054061;28;20017;-64
2022/04/08 03:52:32;;;;;;;4.65;1.13;;;;;;;;;;5053402;28;20025;-59
2022/04/08 03:54:58;;;;;;;3.70;0.82;;;;;;;;;;5053918;28;20036;-64
2022/04/08 03:57:24;;;;;;;5.20;1.30;;;;;;;;;;5053575;28;20021;-62
2022/04/08 03:59:50;;;;;;;4.13;1.00;;;;;;;;;;5053577;28;20029;-59
2022/04/08 04:02:16;;;;;;;3.40;0.90;;;;;;;;;;5053574;28;20025;-67
2022/04/08 04:04:42;;;;;;;2.67;0.95;;;;;;;;;;5052232;28;20388;-58
2022/04/08 04:07:08;;;;;;;3.47;1.08;;;;;;;;;;5053181;28;20163;-67
2022/04/08 04:09:34;;;;;;;4.35;1.10;;;;;;;;;;5053489;28;20017;-65
2022/04/08 04:12:00;;;;;;;5.78;1.10;;;;;;;;;;5053184;28;20048;-61
2022/04/08 04:14:26;;;;;;;2.13;0.85;;;;;;;;;;5052903;28;20769;-63
2022/04/08 04:16:52;;;;;;;3.30;1.10;;;;;;;;;;5053319;28;20048;-63
2022/04/08 04:19:18;;;;;;;6.57;1.00;;;;;;;;;;5050452;28;20428;-62
2022/04/08 04:21:44;;;;;;;3.75;1.17;;;;;;;;;;5052905;28;20087;-63
2022/04/08 04:24:10;;;;;;;5.55;0.98;;;;;;;;;;5053365;28;20017;-66
2022/04/08 04:26:36;;;;;;;2.72;0.90;;;;;;;;;;5052419;28;20051;-61
2022/04/08 04:29:02;;;;;;;2.80;0.88;;;;;;;;;;5053032;28;20048;-64
2022/04/08 04:31:28;;;;;;;3.40;1.10;;;;;;;;;;5052696;28;20106;-65
2022/04/08 04:33:54;;;;;;;2.55;1.17;;;;;;;;;;5052605;28;20032;-66
2022/04/08 04:36:20;;;;;;;3.75;1.15;;;;;;;;;;5031175;28;20621;-62
2022/04/08 04:38:47;;;;;;;4.55;1.13;;;;;;;;;;5040755;28;20082;-62
2022/04/08 04:41:13;;;;;;;3.63;1.40;;;;;;;;;;5014872;28;20497;-65
2022/04/08 04:43:40;;;;;;;3.45;1.13;;;;;;;;;;5033650;28;20025;-66
2022/04/08 04:46:07;;;;;;;7.25;1.20;;;;;;;;;;5039205;28;20064;-62
2022/04/08 04:48:36;;;;;;;7.28;1.02;;;;;;;;;;5041375;28;20042;-64
2022/04/08 04:51:02;;;;;;;12.77;0.88;;;;;;;;;;5061615;28;20036;-60
2022/04/08 04:53:28;;;;;;;2.42;1.00;;;;;;;;;;5052132;28;20487;-60
2022/04/08 04:55:57;;;;;;;3.03;0.90;;;;;;;;;;5034042;28;20531;-65
2022/04/08 04:58:23;;;;;;;2.30;0.85;;;;;;;;;;5053196;28;20025;-65
2022/04/08 05:00:49;;;;;;;13.70;1.13;;;;;;;;;;5059578;28;20021;-65
2022/04/08 05:03:15;;;;;;;7.85;1.00;;;;;;;;;;5058194;28;20369;-63
2022/04/08 05:05:41;;;;;;;2.42;0.73;;;;;;;;;;5057697;28;20041;-64
2022/04/08 05:08:07;;;;;;;10.52;1.30;;;;;;;;;;5057112;28;20068;-63
2022/04/08 05:10:34;;;;;;;2.67;0.70;;;;;;;;;;5058512;28;20055;-64
2022/04/08 05:13:00;;;;;;;2.95;1.00;;;;;;;;;;5061216;28;20024;-63
2022/04/08 05:15:27;;;;;;;5.70;1.08;;;;;;;;;;5058570;28;20056;-63
2022/04/08 05:17:53;;;;;;;2.38;0.90;;;;;;;;;;5057734;28;20035;-63
2022/04/08 05:20:19;;;;;;;2.85;1.05;;;;;;;;;;5036702;28;20017;-62
2022/04/08 05:22:45;;;;;;;3.53;1.10;;;;;;;;;;5058796;28;20036;-62
2022/04/08 05:25:11;;;;;;;3.72;1.05;;;;;;;;;;5060776;28;20877;-61
2022/04/08 05:27:38;;;;;;;18.17;1.33;;;;;;;;;;5059008;28;20198;-81
2022/04/08 05:30:07;;;;;;;6.03;1.00;;;;;;;;;;5059590;28;20269;-70
2022/04/08 05:32:33;;;;;;;5.72;1.20;;;;;;;;;;5059239;28;20048;-69
2022/04/08 05:35:00;;;;;;;11.95;1.00;;;;;;;;;;5055073;28;20033;-67
2022/04/08 05:37:26;;;;;;;6.78;1.20;;;;;;;;;;5037842;28;20123;-68
2022/04/08 05:39:53;;;;;;;10.80;1.17;;;;;;;;;;5043487;28;20657;-71
2022/04/08 05:42:19;;;;;;;7.47;1.33;;;;;;;;;;5059438;28;20041;-66
2022/04/08 05:44:45;;;;;;;16.73;1.20;;;;;;;;;;5056725;28;20021;-68
2022/04/08 05:47:11;;;;;;;15.95;1.08;;;;;;;;;;5045999;28;20037;-66
2022/04/08 05:49:37;;;;;;;18.88;1.25;;;;;;;;;;5061593;28;20044;-63
2022/04/08 05:52:04;;;;;;;35.58;1.70;;;;;;;;;;5040549;28;20068;-63
2022/04/08 05:54:30;;;;;;;20.10;1.33;;;;;;;;;;5062239;28;20793;-62
2022/04/08 05:57:01;;;;;;;22.92;1.23;;;;;;;;;;5054280;28;20068;-64
2022/04/08 05:59:29;;;;;;;17.33;1.13;;;;;;;;;;5057835;28;20028;-62
2022/04/08 06:01:56;;;;;;;6.13;1.25;;;;;;;;;;5055865;28;20129;-62
2022/04/08 06:04:23;;;;;;;4.45;1.02;;;;;;;;;;5039418;28;20028;-63
2022/04/08 06:06:50;;;;;;;6.47;1.13;;;;;;;;;;5054594;28;20041;-64
2022/04/08 06:09:16;;;;;;;14.57;1.23;;;;;;;;;;5040538;28;20476;-62
2022/04/08 06:11:44;;;;;;;6.60;0.88;;;;;;;;;;5050499;28;20033;-66
2022/04/08 06:14:10;;;;;;;10.20;1.10;;;;;;;;;;5060260;28;20127;-67
2022/04/08 06:16:36;;;;;;;10.68;1.10;;;;;;;;;;5065868;28;20027;-66
2022/04/08 06:19:02;;;;;;;4.30;0.90;;;;;;;;;;5064299;28;20107;-64
2022/04/08 06:21:28;;;;;;;11.52;0.93;;;;;;;;;;5069462;28;20024;-66
2022/04/08 06:23:54;;;;;;;5.45;1.13;;;;;;;;;;5069437;28;20481;-64
2022/04/08 06:26:20;;;;;;;12.23;1.55;;;;;;;;;;5069299;28;20047;-61
2022/04/08 06:28:46;;;;;;;5.25;0.90;;;;;;;;;;5055119;28;20021;-66
2022/04/08 06:31:12;;;;;;;4.55;1.08;;;;;;;;;;5050318;28;20036;-66
2022/04/08 06:33:38;;;;;;;13.73;1.15;;;;;;;;;;5049361;28;20033;-66
2022/04/08 06:36:04;;;;;;;24.60;1.35;;;;;;;;;;5054337;28;20021;-66
2022/04/08 06:38:30;;;;;;;18.27;1.23;;;;;;;;;;5054520;28;20025;-66
2022/04/08 06:40:56;;;;;;;20.05;1.25;;;;;;;;;;5054466;28;20025;-64
2022/04/08 06:43:22;;;;;;;21.25;1.38;;;;;;;;;;5053641;28;20033;-64
2022/04/08 06:45:48;;;;;;;10.82;1.55;;;;;;;;;;5034917;28;20037;-65
2022/04/08 06:48:14;;;;;;;10.98;1.20;;;;;;;;;;5053155;28;20509;-64
2022/04/08 06:50:40;;;;;;;8.18;1.27;;;;;;;;;;5051952;28;20021;-66
2022/04/08 06:53:06;;;;;;;8.40;1.30;;;;;;;;;;5052503;28;20353;-65
2022/04/08 06:55:33;;;;;;;8.60;1.13;;;;;;;;;;5052395;28;20147;-65
2022/04/08 06:57:59;;;;;;;9.90;1.48;;;;;;;;;;5052845;28;20642;-64
2022/04/08 07:00:26;;;;;;;7.40;1.20;;;;;;;;;;5052825;28;20029;-66
2022/04/08 07:02:52;;;;;;;5.18;1.17;;;;;;;;;;5052764;28;20071;-65
2022/04/08 07:05:18;;;;;;;6.53;1.10;;;;;;;;;;5053007;28;20033;-65
2022/04/08 07:07:47;;;;;;;8.43;1.45;;;;;;;;;;5053552;28;20029;-64
2022/04/08 07:10:14;;;;;;;4.70;1.27;;;;;;;;;;5053138;28;20032;-65
2022/04/08 07:12:40;;;;;;;7.38;1.02;;;;;;;;;;5034891;28;20095;-64
2022/04/08 07:15:06;;;;;;;6.45;1.08;;;;;;;;;;5052443;28;20119;-65
2022/04/08 07:17:33;;;;;;;8.48;1.20;;;;;;;;;;5052298;28;20048;-64
2022/04/08 07:19:59;;;;;;;8.85;1.13;;;;;;;;;;5052215;28;20036;-66
2022/04/08 07:22:25;;;;;;;4.03;1.30;;;;;;;;;;5050961;28;20530;-63
2022/04/08 07:24:52;;;;;;;4.38;1.15;;;;;;;;;;5056765;28;20113;-63
2022/04/08 07:27:18;;;;;;;7.10;1.17;;;;;;;;;;5052262;28;20051;-64
2022/04/08 07:29:45;;;;;;;4.50;0.98;;;;;;;;;;5052328;28;20101;-66
2022/04/08 07:32:11;;;;;;;3.50;1.00;;;;;;;;;;5051798;28;20380;-65
2022/04/08 07:34:37;;;;;;;5.28;1.15;;;;;;;;;;5033862;28;20483;-67
2022/04/08 07:37:04;;;;;;;4.60;1.20;;;;;;;;;;5051894;28;20032;-64
2022/04/08 07:39:30;;;;;;;6.22;1.15;;;;;;;;;;5045011;28;20076;-66
2022/04/08 07:41:56;;;;;;;7.38;1.40;;;;;;;;;;5051676;28;20104;-63
2022/04/08 07:44:22;;;;;;;7.72;1.15;;;;;;;;;;5034052;28;20029;-65
2022/04/08 07:46:48;;;;;;;3.08;0.95;;;;;;;;;;5051431;28;20534;-64
2022/04/08 07:49:14;;;;;;;3.88;1.00;;;;;;;;;;5051638;28;20103;-63
2022/04/08 07:51:41;;;;;;;7.18;1.13;;;;;;;;;;5033673;28;20044;-63
2022/04/08 07:54:08;;;;;;;5.85;1.05;;;;;;;;;;5052334;28;20021;-64
2022/04/08 07:56:35;;;;;;;3.15;1.00;;;;;;;;;;5050096;28;20468;-63
2022/04/08 07:59:02;;;;;;;3.63;1.20;;;;;;;;;;5051555;28;20029;-66
2022/04/08 08:01:28;;;;;;;3.50;1.05;;;;;;;;;;5051306;28;20472;-66
2022/04/08 08:03:54;;;;;;;7.00;1.10;;;;;;;;;;5051246;28;20514;-67
2022/04/08 08:06:20;;;;;;;5.13;1.10;;;;;;;;;;5051251;28;20472;-67
2022/04/08 08:08:46;;;;;;;3.33;0.90;;;;;;;;;;5051346;28;20078;-67
2022/04/08 08:11:15;;;;;;;4.63;1.10;;;;;;;;;;5051484;28;20033;-67
2022/04/08 08:13:41;;;;;;;6.28;1.20;;;;;;;;;;5051208;28;20083;-67
2022/04/08 08:16:07;;;;;;;2.08;0.90;;;;;;;;;;5033102;28;20037;-67
2022/04/08 08:18:34;;;;;;;9.18;1.20;;;;;;;;;;5051151;28;20047;-66
2022/04/08 08:21:00;;;;;;;9.13;1.38;;;;;;;;;;5050833;28;20534;-68
2022/04/08 08:23:27;;;;;;;7.95;1.15;;;;;;;;;;5051085;28;20104;-66
2022/04/08 08:25:53;;;;;;;4.90;1.25;;;;;;;;;;5067290;28;20109;-68
2022/04/08 08:28:21;;;;;;;4.35;1.00;;;;;;;;;;5052004;28;20098;-67
2022/04/08 08:30:47;;;;;;;2.30;1.00;;;;;;;;;;5050307;28;20388;-67
2022/04/08 08:33:13;;;;;;;8.95;1.05;;;;;;;;;;5032597;28;20772;-68
2022/04/08 08:35:39;;;;;;;5.28;1.00;;;;;;;;;;5051000;28;20088;-65
2022/04/08 08:38:05;;;;;;;3.05;1.20;;;;;;;;;;5050703;28;20021;-64
2022/04/08 08:40:32;;;;;;;3.20;1.10;;;;;;;;;;5050799;28;20029;-64
2022/04/08 08:43:00;;;;;;;4.20;1.10;;;;;;;;;;5050481;28;20029;-64
2022/04/08 08:45:32;;;;;;;7.13;1.02;;;;;;;;;;5050929;28;20124;-65
2022/04/08 08:47:59;;;;;;;3.22;1.05;;;;;;;;;;5050994;28;20518;-64
2022/04/08 08:50:26;;;;;;;3.47;0.85;;;;;;;;;;5050641;28;20411;-66
2022/04/08 08:52:52;;;;;;;14.15;1.08;;;;;;;;;;5050339;28;20021;-67
2022/04/08 08:55:18;;;;;;;4.20;1.00;;;;;;;;;;5050091;28;20095;-67
2022/04/08 08:57:45;;;;;;;4.80;0.80;;;;;;;;;;5030133;28;20123;-67
2022/04/08 09:00:16;;;;;;;2.58;0.80;;;;;;;;;;5050750;28;20013;-67
2022/04/08 09:02:50;;;;;;;4.28;0.80;;;;;;;;;;5050380;28;20024;-67
2022/04/08 09:05:18;;;;;;;2.60;0.80;;;;;;;;;;5032569;28;20036;-67
2022/04/08 09:07:53;;;;;;;5.55;1.08;;;;;;;;;;5050548;28;20020;-67
2022/04/08 09:10:23;;;;;;;5.28;1.10;;;;;;;;;;5050334;28;20174;-67
2022/04/08 09:12:53;;;;;;;8.00;1.30;;;;;;;;;;5050171;28;20032;-67
2022/04/08 09:15:19;;;;;;;4.38;0.90;;;;;;;;;;5050424;28;20091;-68
2022/04/08 09:17:46;;;;;;;7.15;0.93;;;;;;;;;;5049208;28;20483;-66
2022/04/08 09:20:12;;;;;;;4.57;1.05;;;;;;;;;;5050484;28;20060;-67
2022/04/08 09:22:38;;;;;;;4.47;1.08;;;;;;;;;;5050287;28;20396;-67
2022/04/08 09:25:09;;;;;;;6.07;1.05;;;;;;;;;;5059623;28;20122;-67
2022/04/08 09:27:37;;;;;;;2.50;0.82;;;;;;;;;;5066036;28;20096;-67
2022/04/08 09:30:03;;;;;;;2.08;0.88;;;;;;;;;;5051186;28;20477;-66
2022/04/08 09:32:29;;;;;;;3.15;1.05;;;;;;;;;;5050594;28;20078;-67
2022/04/08 09:34:55;;;;;;;4.30;0.85;;;;;;;;;;5049957;28;20025;-66
2022/04/08 09:37:22;;;;;;;2.75;0.98;;;;;;;;;;5050561;28;20035;-67
2022/04/08 09:40:03;;;;;;;4.28;0.82;;;;;;;;;;5050330;28;20411;-67
2022/04/08 09:42:42;;;;;;;8.90;1.00;;;;;;;;;;5046762;28;20028;-67
2022/04/08 09:45:09;;;;;;;6.30;0.90;;;;;;;;;;5050111;28;20028;-67
2022/04/08 09:47:35;;;;;;;3.45;1.05;;;;;;;;;;5032919;28;20083;-67
2022/04/08 09:50:01;;;;;;;5.95;1.10;;;;;;;;;;5050553;28;20473;-67
2022/04/08 09:52:27;;;;;;;2.58;0.90;;;;;;;;;;5050799;28;20029;-68
2022/04/08 09:54:53;;;;;;;5.20;1.10;;;;;;;;;;5050719;28;20025;-68
2022/04/08 09:57:19;;;;;;;2.33;0.88;;;;;;;;;;5043231;28;20139;-67
2022/04/08 09:59:47;;;;;;;7.60;1.00;;;;;;;;;;5031989;28;20112;-67
2022/04/08 10:02:15;;;;;;;3.20;1.10;;;;;;;;;;5050581;28;20029;-67
2022/04/08 10:04:42;;;;;;;3.30;1.20;;;;;;;;;;5050737;28;20079;-67
2022/04/08 10:07:09;;;;;;;3.42;1.10;;;;;;;;;;5050690;28;20095;-67
2022/04/08 10:09:38;;;;;;;3.17;0.82;;;;;;;;;;5053880;28;20025;-64
2022/04/08 10:12:04;;;;;;;3.30;1.15;;;;;;;;;;5054380;28;20057;-65
2022/04/08 10:14:48;;;;;;;4.72;0.90;;;;;;;;;;5052867;28;20041;-65
2022/04/08 10:17:16;;;;;;;2.40;0.90;;;;;;;;;;5054163;28;20040;-64
2022/04/08 10:19:42;;;;;;;2.95;0.90;;;;;;;;;;5054389;28;20032;-64
2022/04/08 10:22:18;;;;;;;4.80;0.88;;;;;;;;;;5053905;28;20025;-65
2022/04/08 10:25:07;;;;;;;3.38;1.13;;;;;;;;;;5054085;28;20083;-65
2022/04/08 10:27:38;;;;;;;2.97;1.08;;;;;;;;;;5053254;28;20040;-64
2022/04/08 10:30:13;;;;;;;2.33;0.80;;;;;;;;;;5054356;28;20083;-65
2022/04/08 10:32:40;;;;;;;2.63;0.82;;;;;;;;;;5053944;28;20054;-65
2022/04/08 10:35:19;;;;;;;2.00;0.70;;;;;;;;;;5054057;28;20021;-66
2022/04/08 10:37:54;;;;;;;2.20;0.80;;;;;;;;;;5035882;28;20025;-65
2022/04/08 10:40:20;;;;;;;2.00;0.80;;;;;;;;;;5054023;28;20033;-63
2022/04/08 10:43:00;;;;;;;2.42;1.13;;;;;;;;;;5035923;28;20028;-65
2022/04/08 10:45:26;;;;;;;2.50;0.90;;;;;;;;;;5035972;28;20065;-65
2022/04/08 10:47:53;;;;;;;4.13;1.05;;;;;;;;;;5034962;28;20048;-66
2022/04/08 10:50:27;;;;;;;3.10;1.00;;;;;;;;;;5053778;28;20032;-65
2022/04/08 10:53:13;;;;;;;1.55;0.70;;;;;;;;;;5060328;28;20025;-67
2022/04/08 10:55:53;;;;;;;2.08;0.75;;;;;;;;;;5064434;28;20090;-65
2022/04/08 10:58:35;;;;;;;2.72;0.90;;;;;;;;;;5055014;28;20120;-64
2022/04/08 11:01:13;;;;;;;1.77;0.80;;;;;;;;;;5060029;28;20056;-65
2022/04/08 11:03:45;;;;;;;1.85;0.70;;;;;;;;;;5062257;28;20028;-65
2022/04/08 11:06:11;;;;;;;5.60;0.98;;;;;;;;;;5062017;28;20119;-66
2022/04/08 11:08:37;;;;;;;2.50;0.80;;;;;;;;;;5062249;28;20051;-66
2022/04/08 11:11:03;;;;;;;1.45;0.60;;;;;;;;;;5064721;28;20037;-64
2022/04/08 11:13:29;;;;;;;2.47;0.70;;;;;;;;;;5059096;28;20033;-66
2022/04/08 11:15:55;;;;;;;2.90;0.60;;;;;;;;;;5048555;28;20036;-65
2022/04/08 11:18:21;;;;;;;2.30;0.90;;;;;;;;;;5053366;28;20346;-65
2022/04/08 11:20:50;;;;;;;4.22;0.82;;;;;;;;;;5052450;28;20029;-65
2022/04/08 11:23:25;;;;;;;3.75;0.82;;;;;;;;;;5053499;28;20021;-66
2022/04/08 11:25:51;;;;;;;3.72;0.90;;;;;;;;;;5053436;28;20103;-65
2022/04/08 11:28:17;;;;;;;3.53;0.80;;;;;;;;;;5053421;28;20167;-65
2022/04/08 11:30:44;;;;;;;5.05;0.80;;;;;;;;;;5053262;28;20044;-65
2022/04/08 11:33:16;;;;;;;3.75;1.00;;;;;;;;;;5052852;28;20353;-66
2022/04/08 11:35:42;;;;;;;2.37;1.10;;;;;;;;;;5035534;28;20023;-66
2022/04/08 11:38:15;;;;;;;10.30;1.23;;;;;;;;;;5034961;28;20025;-67
2022/04/08 11:40:41;;;;;;;;;;;;;;;;;;5053122;28;20106;-67
2022/04/08 11:43:08;;;;;;;31.52;1.25;;;;;;;;;;5052841;28;20380;-66
2022/04/08 11:45:34;;;;;;;6.88;1.10;;;;;;;;;;5053090;28;20460;-65
2022/04/08 11:48:00;;;;;;;5.13;1.10;;;;;;;;;;5052976;28;20032;-66
2022/04/08 11:50:27;;;;;;;9.57;1.13;;;;;;;;;;5052897;28;20384;-66
2022/04/08 11:52:57;;;;;;;13.80;1.15;;;;;;;;;;5034894;28;20031;-66
2022/04/08 11:55:27;;;;;;;6.25;0.90;;;;;;;;;;5052710;28;20021;-66
2022/04/08 11:57:53;;;;;;;5.95;0.93;;;;;;;;;;5052790;28;20658;-65
2022/04/08 12:00:26;;;;;;;4.35;1.10;;;;;;;;;;5067545;28;20050;-66
2022/04/08 12:02:53;;;;;;;7.50;0.93;;;;;;;;;;5054562;28;20345;-66
2022/04/08 12:05:24;;;;;;;2.80;0.88;;;;;;;;;;5072595;28;20028;-66
2022/04/08 12:07:51;;;;;;;9.52;0.77;;;;;;;;;;5072749;28;20403;-65
2022/04/08 12:10:18;;;;;;;4.18;0.85;;;;;;;;;;5072715;28;20104;-67
2022/04/08 12:12:47;;;;;;;6.53;1.00;;;;;;;;;;5055119;28;20066;-65
2022/04/08 12:15:13;;;;;;;3.40;0.90;;;;;;;;;;5052329;28;20045;-67
2022/04/08 12:17:40;;;;;;;1.58;0.70;;;;;;;;;;5052469;28;20063;-65
2022/04/08 12:20:06;;;;;;;2.65;1.10;;;;;;;;;;5052293;28;20025;-66
2022/04/08 12:22:35;;;;;;;2.03;0.90;;;;;;;;;;5052298;28;20017;-66
2022/04/08 12:25:01;;;;;;;2.53;0.80;;;;;;;;;;5052294;28;20100;-65
2022/04/08 12:27:31;;;;;;;3.60;0.70;;;;;;;;;;5033372;28;20115;-67
2022/04/08 12:30:00;;;;;;;3.65;0.80;;;;;;;;;;5026453;28;20021;-66
2022/04/08 12:32:33;;;;;;;5.20;1.25;;;;;;;;;;5050877;28;20029;-66
2022/04/08 12:34:59;;;;;;;3.20;0.88;;;;;;;;;;5033836;28;20515;-65
2022/04/08 12:37:25;;;;;;;3.47;1.00;;;;;;;;;;5051973;28;20033;-65
2022/04/08 12:39:51;;;;;;;5.72;1.08;;;;;;;;;;5034235;28;20021;-66
2022/04/08 12:42:17;;;;;;;1.92;0.88;;;;;;;;;;5051595;28;20024;-66
2022/04/08 12:44:43;;;;;;;1.88;0.75;;;;;;;;;;5052200;28;20033;-66
2022/04/08 12:47:11;;;;;;;2.20;0.82;;;;;;;;;;5052023;28;20028;-66
2022/04/08 12:49:37;;;;;;;2.13;1.00;;;;;;;;;;5052073;28;20029;-66
2022/04/08 12:52:03;;;;;;;2.72;0.85;;;;;;;;;;5051552;28;20028;-66
2022/04/08 12:54:29;;;;;;;2.30;0.68;;;;;;;;;;5051931;28;20472;-66
2022/04/08 12:56:55;;;;;;;10.82;0.70;;;;;;;;;;5051729;28;20029;-66
2022/04/08 12:59:21;;;;;;;2.25;0.70;;;;;;;;;;5051459;28;20037;-65
2022/04/08 13:01:47;;;;;;;1.35;0.80;;;;;;;;;;5049270;28;20040;-67
2022/04/08 13:04:13;;;;;;;2.72;0.80;;;;;;;;;;5033091;28;20484;-65
2022/04/08 13:06:39;;;;;;;2.28;0.73;;;;;;;;;;5051028;28;20469;-65
2022/04/08 13:09:07;;;;;;;2.63;0.75;;;;;;;;;;5048426;28;20036;-65
2022/04/08 13:11:34;;;;;;;5.45;0.80;;;;;;;;;;5051224;28;20025;-65
2022/04/08 13:14:00;;;;;;;2.05;0.90;;;;;;;;;;5063568;28;20084;-66
2022/04/08 13:16:27;;;;;;;1.92;0.98;;;;;;;;;;5049879;28;20029;-67
2022/04/08 13:18:53;;;;;;;3.97;0.70;;;;;;;;;;5025624;28;20029;-65
2022/04/08 13:21:19;;;;;;;1.40;0.70;;;;;;;;;;5054553;28;20639;-65
2022/04/08 13:23:45;;;;;;;2.10;0.65;;;;;;;;;;5058041;28;20068;-66
2022/04/08 13:26:11;;;;;;;1.92;0.77;;;;;;;;;;5045767;28;20037;-64
2022/04/08 13:28:37;;;;;;;2.08;0.70;;;;;;;;;;5051460;28;20039;-65
2022/04/08 13:31:03;;;;;;;2.35;0.65;;;;;;;;;;5048292;28;20029;-67
2022/04/08 13:33:29;;;;;;;1.73;0.82;;;;;;;;;;5055296;28;20016;-67
2022/04/08 13:35:56;;;;;;;5.20;0.90;;;;;;;;;;5054085;28;20139;-65
2022/04/08 13:38:25;;;;;;;1.52;0.70;;;;;;;;;;5033908;28;20035;-61
2022/04/08 13:40:51;;;;;;;1.10;0.50;;;;;;;;;;5057056;28;20434;-61
2022/04/08 13:43:17;;;;;;;3.88;0.85;;;;;;;;;;5055885;28;20027;-67
2022/04/08 13:45:43;;;;;;;9.52;1.23;;;;;;;;;;5059243;28;20070;-59
2022/04/08 13:48:09;;;;;;;9.07;0.90;;;;;;;;;;5035341;28;20384;-63
2022/04/08 13:50:35;;;;;;;3.10;0.90;;;;;;;;;;5042048;28;20053;-67
2022/04/08 13:53:01;;;;;;;3.40;0.70;;;;;;;;;;5044988;28;20480;-66
2022/04/08 13:55:27;;;;;;;4.38;0.90;;;;;;;;;;5057377;28;20032;-65
2022/04/08 13:57:52;;;;;;;3.83;1.00;;;;;;;;;;5043929;28;20039;-64
2022/04/08 14:00:19;;;;;;;5.53;0.80;;;;;;;;;;5034125;28;20072;-59
2022/04/08 14:02:45;;;;;;;2.88;1.02;;;;;;;;;;5046829;28;20049;-62
2022/04/08 14:05:11;;;;;;;2.33;0.90;;;;;;;;;;5060032;28;20068;-67
2022/04/08 14:07:37;;;;;;;2.70;0.80;;;;;;;;;;5054263;28;20029;-66
2022/04/08 14:10:03;;;;;;;5.75;1.15;;;;;;;;;;5059521;28;20029;-68
2022/04/08 14:12:29;;;;;;;1.65;0.90;;;;;;;;;;5057076;28;20032;-67
2022/04/08 14:14:55;;;;;;;3.17;1.00;;;;;;;;;;5055325;28;20106;-66
2022/04/08 14:17:21;;;;;;;6.15;0.90;;;;;;;;;;5048668;28;20381;-67
2022/04/08 14:19:47;;;;;;;4.97;0.80;;;;;;;;;;5053463;28;20041;-67
2022/04/08 14:22:13;;;;;;;4.13;1.00;;;;;;;;;;5053256;28;20029;-65
2022/04/08 14:24:39;;;;;;;1.67;0.90;;;;;;;;;;5052990;28;20044;-63
2022/04/08 14:27:05;;;;;;;5.97;1.08;;;;;;;;;;5056266;28;20368;-66
2022/04/08 14:29:31;;;;;;;2.15;0.70;;;;;;;;;;5051873;28;20051;-67
2022/04/08 14:31:57;;;;;;;5.70;0.80;;;;;;;;;;5059136;28;20020;-66
2022/04/08 14:34:23;;;;;;;2.80;0.80;;;;;;;;;;5051152;28;20032;-65
2022/04/08 14:36:49;;;;;;;3.20;0.88;;;;;;;;;;5040592;28;20479;-68
2022/04/08 14:39:15;;;;;;;1.65;0.73;;;;;;;;;;5034644;28;20029;-66
2022/04/08 14:41:43;;;;;;;1.58;0.77;;;;;;;;;;5049242;28;20032;-67